• Join FlightAware (Why Join?)
  • Login
  • US Flag 
06:10AM EDT


 

Airport Tracker/Info


-or-


 

Live Flight TrackerFlight Track Log ✈ AWE3268 ✈ 29-Jul-2013 ✈ KPHL - KMHT

Flight Track Log - Related Links

Times and Time Zones

All times are in EDT time to prevent confusion due to time zone crossing. See the AWE3268 flight status page for this flight to view local times or setup timezone preferences in your user account.

Time Position Orientation Groundspeed Altitude Reporting Facility
EDT Latitude Longitude Course Direction KTS MPH feet Rate Location/Type
04:24PM 39.8667 -75.2667 37° Northeast 152 175 900  Level Philadelphia TRACON
04:25PM 39.8000 -75.3333 218° Southwest 234 269 3,500 2,640 Climbing Philadelphia TRACON
04:26PM 39.8167 -74.9063 90° East  Level FlightAware Approximate
04:26PM 39.7333 -75.3333 180° South 274 315 7,400  Level Philadelphia TRACON
04:27PM 39.8022 -74.7943 105° East  Level FlightAware Approximate
04:27PM 39.7167 -75.2500 105° East 315 362 10,700  Level Philadelphia TRACON
04:28PM 39.7937 -74.6897 37° Northeast  Level FlightAware Approximate
04:29PM 39.8634 -74.6200 37° Northeast  Level FlightAware Approximate
04:30PM 39.7536 -74.9617 80° East 367 422 12,000  Level New York Center
04:31PM 39.7750 -74.8250 78° East 357 411 12,100 1,320 Climbing New York Center
04:32PM 39.8083 -74.7000 71° East 357 411 14,600 2,520 Climbing New York Center
04:33PM 39.8925 -74.6181 37° Northeast 344 396 17,300 2,220 Climbing New York Center
04:34PM 39.9697 -74.5467 35° Northeast 355 409 19,200 1,860 Climbing New York Center
04:35PM 40.0625 -74.4511 38° Northeast 397 457 21,000 1,860 Climbing New York Center
04:36PM 40.1528 -74.3636 37° Northeast 408 470 22,900 1,740 Climbing New York Center
04:37PM 40.2472 -74.2681 38° Northeast 413 475 24,500 1,020 Climbing New York Center
04:38PM 40.3461 -74.1694 37° Northeast 431 496 25,000 780 Climbing New York Center
04:39PM 40.4581 -74.1150 20° North 422 486 26,100 1,140 Climbing New York Center
04:41PM 40.7547 -74.0786 North 447 514 28,800 840 Climbing Boston Center
04:42PM 40.8842 -74.0625 North 465 535 29,000 60 Climbing Boston Center
04:43PM 41.0156 -74.0467 North 465 535 29,000  Level Boston Center
04:44PM 41.1450 -74.0278 North 465 535 29,000  Level Boston Center
04:45PM 41.2703 -74.0089 North 460 529 29,000  Level Boston Center
04:46PM 41.4019 -73.9897 North 466 536 29,000  Level Boston Center
04:47PM 41.5272 -73.9733 North 461 531 29,000  Level Boston Center
04:48PM 41.6544 -73.9544 North 461 531 29,000  Level Boston Center
04:49PM 41.7839 -73.9381 North 461 531 29,000  Level Boston Center
04:50PM 41.9050 -73.9242 North 449 517 29,000  Level Boston Center
04:51PM 42.0325 -73.9075 North 449 517 29,000 -840 Level Boston Center
04:52PM 42.1578 -73.8908 North 449 517 27,400 -1,500 Descending Boston Center
04:53PM 42.2767 -73.8739 North 444 511 26,000 -1,500 Descending Boston Center
04:54PM 42.3842 -73.7864 31° Northeast 430 495 24,500 -1,560 Descending Boston Center
04:55PM 42.4336 -73.6356 66° East 396 456 23,000 -1,380 Descending Boston Center
04:56PM 42.4661 -73.5153 70° East 405 466 21,800 -1,440 Descending Boston Center
04:57PM 42.5158 -73.3303 70° East 415 478 20,100 -1,440 Descending Boston Center
04:58PM 42.5478 -73.2094 70° East 422 486 19,000 -600 Descending Boston Center
04:59PM 42.5883 -73.0547 70° East 394 453 19,000  Level Boston Center
05:00PM 42.6222 -72.9422 68° East 394 453 19,000 -720 Level Boston Center
05:01PM 42.6644 -72.7903 69° East 388 447 17,600 -1,320 Descending Boston Center
05:02PM 42.6919 -72.6803 71° East 388 447 16,400 -1,440 Descending Boston Center
05:03PM 42.7339 -72.5192 70° East 383 441 14,700 -1,500 Descending Boston Center
05:04PM 42.7692 -72.3892 70° East 377 434 13,400 -1,380 Descending Boston Center
05:05PM 42.7961 -72.2478 75° East 354 407 12,000 -1,320 Descending Boston Center
05:06PM 42.8086 -72.1344 81° East 343 395 10,900 -1,320 Descending Boston Center
05:07PM 42.8644 -72.0208 56° Northeast 324 373 9,500 -1,320 Descending Boston Center
05:08PM 42.9100 -71.9328 55° Northeast 319 367 8,300 -1,620 Descending Boston Center
05:09PM 42.9636 -71.8358 53° Northeast 299 344 6,300 -1,860 Descending Boston Center
05:10PM 43.0069 -71.7558 53° Northeast 289 333 4,600 -1,680 Descending Boston Center
05:11PM 43.0583 -71.6586 54° Northeast 289 333 3,000 -1,080 Descending Boston Center
05:12PM 43.0667 -71.6000 79° East 282 325 3,000 -240 Level KA90
05:13PM 43.0833 -71.5167 75° East 237 273 2,700 -540 Descending KA90
05:14PM 43.0333 -71.4833 154° Southeast 192 221 2,000 -840 Descending KA90
05:15PM 42.9833 -71.4667 166° South 159 183 1,100 -780 Descending KA90
05:16PM 42.9500 -71.4500 160° South 129 148 500 -600 Descending KA90